Portada
METAR-TAF:

METAR-TAF

Aeropuertos :

Aeropuerto de Okadama

Sapporo, Japón

latitud: 43-07N, longitud: 141-23E, altitud: 8 m

Observación

El informe se hizo hace 16 horas y 54 minutos, a las 09:02 UTC
Viento 13 kt del sur con ráfagas de 24 kt
Temperatura 15°C
Humedad 72%
Presión 1003 hPa
Visibilidad 10 km o más
Escasas nubes a una altura de 3000 ft
Cielo nuboso a una altura de 12000 ft
Cielo nuboso a una altura de 15000 ft

METAR: RJCO 230902Z 17013G24KT 9999 FEW030 BKN120 BKN150 15/10 Q1003 RMK 1CU030 5AC120 7AC150 A2963

Hora: 10:56 (01:56 UTC)


TAF: falta

Observaciones y pronósticos meteorológicos de más de 4000 aeropuertos (mensajes METAR y TAF).

Los puntos amarillos y rojos representan las estaciones disponibles.

Ponga el ratón en el punto deseado para ver el nombre de la estación.

Haga clic para ver las observaciones y los pronósticos meteorológicos.

Para cambiar el mapa : haga clic en los botones verdes con una cruz de color negro para hacer un zoom, en el botón verde con un guión para alejar o en las flechas verdes para mapas adyacentes.


METAR-TAF: